createdAt,value
2019-02-06T00:00:28.928Z,-3.64
2019-02-06T00:01:29.700Z,-3.65
2019-02-06T00:02:30.158Z,-3.69
2019-02-06T00:03:30.614Z,-3.81
2019-02-06T00:04:31.775Z,-3.85
2019-02-06T00:05:32.953Z,-3.8
2019-02-06T00:06:33.636Z,-3.75
2019-02-06T00:07:34.762Z,-3.8
2019-02-06T00:08:34.922Z,-3.65
2019-02-06T00:09:35.450Z,-3.5
2019-02-06T00:10:36.261Z,-3.41
2019-02-06T00:11:37.253Z,-3.4
2019-02-06T00:12:38.968Z,-3.43
2019-02-06T00:13:39.262Z,-3.32
2019-02-06T00:14:39.428Z,-3.38
2019-02-06T00:15:41.141Z,-3.36
2019-02-06T00:16:40.910Z,-3.3
2019-02-06T00:17:41.738Z,-3.26
2019-02-06T00:18:43.333Z,-3.26
2019-02-06T00:19:43.460Z,-3.22
2019-02-06T00:20:44.736Z,-3.22
2019-02-06T00:21:45.449Z,-3.2
2019-02-06T00:22:45.631Z,-3.15
2019-02-06T00:23:47.805Z,-3.22
2019-02-06T00:24:46.890Z,-3.38
2019-02-06T00:25:48.162Z,-3.33
2019-02-06T00:26:48.881Z,-3.36
2019-02-06T00:27:49.518Z,-3.27
2019-02-06T00:28:50.886Z,-3.36
2019-02-06T00:29:51.868Z,-3.37
2019-02-06T00:30:52.014Z,-3.37
2019-02-06T00:31:52.727Z,-3.25
2019-02-06T00:32:55.456Z,-3.3
2019-02-06T00:33:54.610Z,-3.29
2019-02-06T00:34:55.321Z,-3.25
2019-02-06T00:35:55.549Z,-3.2
2019-02-06T00:36:56.531Z,-3.36
2019-02-06T00:37:57.029Z,-3.33
2019-02-06T00:38:57.737Z,-3.4
2019-02-06T00:39:58.439Z,-3.33
2019-02-06T00:41:00.382Z,-3.4
2019-02-06T00:42:00.433Z,-3.58
2019-02-06T00:43:01.805Z,-3.84
2019-02-06T00:44:01.790Z,-4.02
2019-02-06T00:45:03.077Z,-4.04
2019-02-06T00:46:03.616Z,-4.06
2019-02-06T00:47:04.037Z,-4.08
2019-02-06T00:48:04.900Z,-4.04
2019-02-06T00:49:05.631Z,-4.17
2019-02-06T00:50:07.642Z,-4.05
2019-02-06T00:51:06.853Z,-4.16
2019-02-06T00:52:07.298Z,-4.14
2019-02-06T00:53:08.008Z,-4.17
2019-02-06T00:54:08.997Z,-4.22
2019-02-06T00:55:09.706Z,-4.22
2019-02-06T00:56:10.132Z,-4.3
2019-02-06T00:57:11.565Z,-4.4
2019-02-06T00:58:13.811Z,-4.4
2019-02-06T00:59:13.097Z,-4.45
2019-02-06T01:00:13.535Z,-4.35
2019-02-06T01:01:13.953Z,-4.45
2019-02-06T01:02:15.198Z,-4.41
2019-02-06T01:03:16.357Z,-4.51
2019-02-06T01:04:17.077Z,-4.41
2019-02-06T01:04:28.775Z,-4.33
2019-02-06T01:05:41.927Z,-4.23
2019-02-06T01:06:42.617Z,-4.04
2019-02-06T01:07:43.032Z,-4.05
2019-02-06T01:08:44.113Z,-4.05
2019-02-06T01:09:45.723Z,-3.91
2019-02-06T01:10:45.404Z,-3.78
2019-02-06T01:11:46.546Z,-3.69
2019-02-06T01:12:47.794Z,-3.62
2019-02-06T01:13:48.493Z,-3.5
2019-02-06T01:14:48.924Z,-3.2
2019-02-06T01:15:49.646Z,-3.23
2019-02-06T01:16:49.521Z,-3.22
2019-02-06T01:17:51.541Z,-3.19
2019-02-06T01:18:51.689Z,-3.15
2019-02-06T01:19:51.928Z,-3.09
2019-02-06T01:20:52.901Z,-3.17
2019-02-06T01:21:53.619Z,-3.17
2019-02-06T01:22:54.330Z,-3.2
2019-02-06T01:23:54.742Z,-3.26
2019-02-06T01:24:56.426Z,-3.25
2019-02-06T01:25:56.841Z,-3.37
2019-02-06T01:26:57.680Z,-3.41
2019-02-06T01:27:58.727Z,-3.47
2019-02-06T01:28:59.425Z,-3.48
2019-02-06T01:30:00.494Z,-3.48
2019-02-06T01:31:01.112Z,-3.51
2019-02-06T01:32:01.807Z,-3.41
2019-02-06T01:33:02.511Z,-3.37
2019-02-06T01:34:02.958Z,-3.44
2019-02-06T01:35:05.006Z,-3.41
2019-02-06T01:36:04.544Z,-3.44
2019-02-06T01:37:05.645Z,-3.27
2019-02-06T01:38:06.123Z,-3.29
2019-02-06T01:39:06.547Z,-3.32
2019-02-06T01:40:07.513Z,-3.14
2019-02-06T01:41:08.053Z,-3.17
2019-02-06T01:42:08.122Z,-3.22
2019-02-06T01:43:10.230Z,-3.2
2019-02-06T01:44:10.341Z,-3.14
2019-02-06T01:45:11.054Z,-3.22
2019-02-06T01:46:12.040Z,-3.19
2019-02-06T01:47:12.320Z,-3.2
2019-02-06T01:48:13.467Z,-3.36
2019-02-06T01:49:14.160Z,-3.26
2019-02-06T01:50:14.865Z,-3.3
2019-02-06T01:51:16.773Z,-3.32
2019-02-06T01:52:17.233Z,-3.33
2019-02-06T01:53:18.210Z,-3.27
2019-02-06T01:54:18.344Z,-3.36
2019-02-06T01:55:19.782Z,-3.41
2019-02-06T01:56:19.917Z,-3.46
2019-02-06T01:57:21.048Z,-3.37
2019-02-06T01:58:21.559Z,-3.3
2019-02-06T01:59:22.469Z,-3.32
2019-02-06T02:00:22.900Z,-3.32
2019-02-06T02:01:24.184Z,-3.22
2019-02-06T02:02:24.311Z,-3.27
2019-02-06T02:03:25.736Z,-3.25
2019-02-06T02:04:25.943Z,-3.19
2019-02-06T02:05:26.469Z,-3.22
2019-02-06T02:06:27.628Z,-3.19
2019-02-06T02:07:28.292Z,-3.12
2019-02-06T02:08:28.715Z,-3.12
2019-02-06T02:09:29.164Z,-3.09
2019-02-06T02:10:30.131Z,-3.15
2019-02-06T02:11:30.539Z,-3.09
2019-02-06T02:12:31.789Z,-3.12
2019-02-06T02:13:32.202Z,-2.99
2019-02-06T02:14:32.611Z,-2.96
2019-02-06T02:15:33.025Z,-2.9
2019-02-06T02:16:34.621Z,-2.93
2019-02-06T02:17:34.845Z,-2.93
2019-02-06T02:18:36.263Z,-2.91
2019-02-06T02:19:36.419Z,-3.02
2019-02-06T02:20:36.835Z,-3.11
2019-02-06T02:21:37.248Z,-3.04
2019-02-06T02:22:37.975Z,-3.08
2019-02-06T02:23:38.658Z,-3.15
2019-02-06T02:24:40.514Z,-3.2
2019-02-06T02:25:40.529Z,-3.23
2019-02-06T02:26:40.774Z,-3.17
2019-02-06T02:27:41.336Z,-3.19
2019-02-06T02:28:42.795Z,-3.36
2019-02-06T02:29:42.926Z,-3.26
2019-02-06T02:30:44.227Z,-3.37
2019-02-06T02:31:44.477Z,-3.27
2019-02-06T02:32:45.746Z,-3.29
2019-02-06T02:33:47.532Z,-3.22
2019-02-06T02:34:46.930Z,-3.26
2019-02-06T02:35:47.625Z,-3.17
2019-02-06T02:36:48.735Z,-3.17
2019-02-06T02:37:49.738Z,-3.25
2019-02-06T02:38:49.723Z,-3.22
2019-02-06T02:39:50.524Z,-3.12
2019-02-06T02:40:51.225Z,-3.05
2019-02-06T02:41:52.772Z,-3.02
2019-02-06T02:42:53.435Z,-2.94
2019-02-06T02:43:53.858Z,-2.9
2019-02-06T02:44:55.691Z,-2.93
2019-02-06T02:45:56.123Z,-2.93
2019-02-06T02:46:57.379Z,-2.96
2019-02-06T02:47:58.801Z,-2.94
2019-02-06T02:48:59.520Z,-2.93
2019-02-06T02:49:59.931Z,-2.98
2019-02-06T02:51:02.190Z,-2.94
2019-02-06T02:52:01.992Z,-3.02
2019-02-06T02:53:03.072Z,-2.99
2019-02-06T02:54:04.344Z,-3.07
2019-02-06T02:55:05.599Z,-3.09
2019-02-06T02:56:06.594Z,-2.98
2019-02-06T02:57:07.583Z,-3.07
2019-02-06T02:58:08.576Z,-3.01
2019-02-06T02:59:09.662Z,-2.96
2019-02-06T03:00:09.848Z,-2.94
2019-02-06T03:01:10.596Z,-2.98
2019-02-06T03:02:11.579Z,-2.89
2019-02-06T03:03:12.294Z,-2.84
2019-02-06T03:04:12.998Z,-2.83
2019-02-06T03:05:13.782Z,-2.94
2019-02-06T03:06:29.974Z,-2.84
2019-02-06T03:07:29.550Z,-2.86
2019-02-06T03:08:30.444Z,-2.94
2019-02-06T03:09:31.460Z,-2.86
2019-02-06T03:10:32.803Z,-2.93
2019-02-06T03:11:32.674Z,-3.01
2019-02-06T03:12:34.008Z,-3.01
2019-02-06T03:13:34.722Z,-3.02
2019-02-06T03:14:35.433Z,-3.08
2019-02-06T03:15:36.124Z,-3.17
2019-02-06T03:16:36.374Z,-3.12
2019-02-06T03:17:37.898Z,-3.15
2019-02-06T03:18:39.508Z,-3.12
2019-02-06T03:19:39.383Z,-3.23
2019-02-06T03:20:40.196Z,-3.32
2019-02-06T03:21:40.352Z,-3.33
2019-02-06T03:22:41.511Z,-3.36
2019-02-06T03:23:41.916Z,-3.25
2019-02-06T03:24:43.192Z,-3.36
2019-02-06T03:25:43.904Z,-3.29
2019-02-06T03:26:45.104Z,-3.33
2019-02-06T03:27:46.087Z,-3.44
2019-02-06T03:28:46.093Z,-3.38
2019-02-06T03:29:46.793Z,-3.4
2019-02-06T03:30:47.800Z,-3.33
2019-02-06T03:31:48.968Z,-3.3
2019-02-06T03:32:50.087Z,-3.25
2019-02-06T03:33:49.908Z,-3.44
2019-02-06T03:34:50.598Z,-3.41
2019-02-06T03:35:52.540Z,-3.43
2019-02-06T03:36:52.684Z,-3.46
2019-02-06T03:37:52.822Z,-3.47
2019-02-06T03:38:53.523Z,-3.47
2019-02-06T03:39:54.512Z,-3.51
2019-02-06T03:40:55.763Z,-3.41
2019-02-06T03:41:55.914Z,-3.4
2019-02-06T03:42:56.612Z,-3.44
2019-02-06T03:43:58.749Z,-3.38
2019-02-06T03:44:58.997Z,-3.3
2019-02-06T03:45:59.981Z,-3.29
2019-02-06T03:47:00.972Z,-3.23
2019-02-06T03:48:01.964Z,-3.37
2019-02-06T03:49:03.231Z,-3.29
2019-02-06T03:50:03.371Z,-3.27
2019-02-06T03:51:04.227Z,-3.33
2019-02-06T03:52:05.936Z,-3.25
2019-02-06T03:53:06.200Z,-3.19
2019-02-06T03:54:06.142Z,-3.22
2019-02-06T03:55:07.568Z,-3.25
2019-02-06T03:56:08.147Z,-3.25
2019-02-06T03:57:08.850Z,-3.19
2019-02-06T03:58:10.258Z,-3.15
2019-02-06T03:59:10.241Z,-3.12
2019-02-06T04:00:11.301Z,-3.12
2019-02-06T04:01:13.919Z,-3.09
2019-02-06T04:02:13.375Z,-3.11
2019-02-06T04:03:14.158Z,-3.09
2019-02-06T04:04:15.171Z,-3.09
2019-02-06T04:05:16.182Z,-3.15
2019-02-06T04:06:17.169Z,-3.11
2019-02-06T04:07:17.200Z,-3.01
2019-02-06T04:08:18.775Z,-3.15
2019-02-06T04:09:20.483Z,-3.07
2019-02-06T04:10:20.406Z,-2.99
2019-02-06T04:11:21.096Z,-2.94
2019-02-06T04:12:21.803Z,-2.9
2019-02-06T04:13:22.211Z,-2.94
2019-02-06T04:14:24.176Z,-2.84
2019-02-06T04:15:24.036Z,-2.96
2019-02-06T04:16:24.740Z,-2.98
2019-02-06T04:17:26.057Z,-2.94
2019-02-06T04:18:26.652Z,-2.94
2019-02-06T04:19:27.765Z,-2.96
2019-02-06T04:20:28.155Z,-2.93
2019-02-06T04:21:28.890Z,-2.94
2019-02-06T04:22:30.147Z,-2.91
2019-02-06T04:23:30.323Z,-3.01
2019-02-06T04:24:31.036Z,-3.04
2019-02-06T04:25:31.799Z,-3.11
2019-02-06T04:26:33.543Z,-3.11
2019-02-06T04:27:33.636Z,-3.2
2019-02-06T04:28:34.628Z,-3.2
2019-02-06T04:29:35.875Z,-3.15
2019-02-06T04:30:35.907Z,-3.37
2019-02-06T04:31:35.898Z,-3.22
2019-02-06T04:32:36.597Z,-3.3
2019-02-06T04:33:37.587Z,-3.26
2019-02-06T04:34:39.170Z,-3.29
2019-02-06T04:35:39.156Z,-3.33
2019-02-06T04:36:39.769Z,-3.3
2019-02-06T04:37:40.729Z,-3.38
2019-02-06T04:38:41.841Z,-3.47
2019-02-06T04:39:42.815Z,-3.46
2019-02-06T04:40:43.567Z,-3.44
2019-02-06T04:41:44.008Z,-3.41
2019-02-06T04:42:45.001Z,-3.38
2019-02-06T04:43:47.665Z,-3.38
2019-02-06T04:44:47.182Z,-3.4
2019-02-06T04:45:47.430Z,-3.43
2019-02-06T04:46:47.846Z,-3.4
2019-02-06T04:47:48.867Z,-3.44
2019-02-06T04:48:50.262Z,-3.47
2019-02-06T04:49:51.890Z,-3.46
2019-02-06T04:50:52.593Z,-3.53
2019-02-06T04:51:54.446Z,-3.43
2019-02-06T04:52:54.550Z,-3.43
2019-02-06T04:53:54.808Z,-3.41
2019-02-06T04:54:55.331Z,-3.5
2019-02-06T04:55:56.761Z,-3.43
2019-02-06T04:56:57.772Z,-3.64
2019-02-06T04:57:58.461Z,-3.65
2019-02-06T04:58:58.863Z,-3.75
2019-02-06T05:00:00.024Z,-3.62
2019-02-06T05:01:01.407Z,-3.65
2019-02-06T05:02:01.810Z,-3.51
2019-02-06T05:03:02.426Z,-3.56
2019-02-06T05:04:03.404Z,-3.55
2019-02-06T05:05:03.964Z,-3.65
2019-02-06T05:06:03.922Z,-3.66
2019-02-06T05:07:04.979Z,-3.64
2019-02-06T05:07:20.594Z,-3.65
2019-02-06T05:08:17.922Z,-3.58
2019-02-06T05:09:18.066Z,-3.58
2019-02-06T05:10:20.576Z,-3.53
2019-02-06T05:11:20.656Z,-3.62
2019-02-06T05:12:21.207Z,-3.47
2019-02-06T05:13:22.187Z,-3.47
2019-02-06T05:14:22.439Z,-3.56
2019-02-06T05:15:22.581Z,-3.56
2019-02-06T05:16:23.988Z,-3.59
2019-02-06T05:17:24.392Z,-3.61
2019-02-06T05:18:26.160Z,-3.65
2019-02-06T05:19:26.307Z,-3.55
2019-02-06T05:20:27.443Z,-3.5
2019-02-06T05:21:28.474Z,-3.41
2019-02-06T05:22:29.302Z,-3.44
2019-02-06T05:23:29.843Z,-3.38
2019-02-06T05:24:30.252Z,-3.23
2019-02-06T05:25:30.241Z,-3.4
2019-02-06T05:26:31.491Z,-3.43
2019-02-06T05:27:33.604Z,-3.41
2019-02-06T05:28:33.114Z,-3.29
2019-02-06T05:29:33.567Z,-3.41
2019-02-06T05:30:35.645Z,-3.43
2019-02-06T05:31:36.362Z,-3.38
2019-02-06T05:32:37.067Z,-3.43
2019-02-06T05:32:49.068Z,-3.38
2019-02-06T05:33:49.533Z,-3.48
2019-02-06T05:34:50.101Z,-3.48
2019-02-06T05:35:51.116Z,-3.55
2019-02-06T05:36:52.385Z,-3.59
2019-02-06T05:37:53.867Z,-3.59
2019-02-06T05:38:53.354Z,-3.64
2019-02-06T05:39:54.731Z,-3.64
2019-02-06T05:40:55.523Z,-3.68
2019-02-06T05:41:56.223Z,-3.66
2019-02-06T05:42:56.647Z,-3.68
2019-02-06T05:43:57.984Z,-3.64
2019-02-06T05:44:58.429Z,-3.81
2019-02-06T05:45:59.689Z,-3.77
2019-02-06T05:46:59.836Z,-3.81
2019-02-06T05:48:00.885Z,-3.91
2019-02-06T05:49:02.524Z,-3.88
2019-02-06T05:50:02.504Z,-3.88
2019-02-06T05:51:03.668Z,-3.91
2019-02-06T05:52:04.395Z,-3.69
2019-02-06T05:53:05.110Z,-3.61
2019-02-06T05:54:06.632Z,-3.53
2019-02-06T05:55:06.739Z,-3.55
2019-02-06T05:56:07.446Z,-3.43
2019-02-06T05:57:08.722Z,-3.43
2019-02-06T05:58:10.005Z,-3.4
2019-02-06T05:59:10.265Z,-3.48
2019-02-06T06:00:10.682Z,-3.37
2019-02-06T06:01:11.225Z,-3.41
2019-02-06T06:02:13.381Z,-3.4
2019-02-06T06:03:13.119Z,-3.41
2019-02-06T06:04:13.390Z,-3.37
2019-02-06T06:05:14.094Z,-3.4
2019-02-06T06:06:15.061Z,-3.44
2019-02-06T06:07:16.847Z,-3.46
2019-02-06T06:08:17.553Z,-3.38
2019-02-06T06:09:18.696Z,-3.44
2019-02-06T06:10:20.482Z,-3.46
2019-02-06T06:11:19.923Z,-3.5
2019-02-06T06:12:20.643Z,-3.47
2019-02-06T06:13:21.681Z,-3.55
2019-02-06T06:14:22.553Z,-3.48
2019-02-06T06:15:23.261Z,-3.43
2019-02-06T06:16:23.682Z,-3.36
2019-02-06T06:17:25.553Z,-3.4
2019-02-06T06:18:26.072Z,-3.33
2019-02-06T06:19:26.770Z,-3.41
2019-02-06T06:20:27.406Z,-3.37
2019-02-06T06:21:27.945Z,-3.33
2019-02-06T06:22:29.217Z,-3.41
2019-02-06T06:23:29.645Z,-3.38
2019-02-06T06:24:30.329Z,-3.3
2019-02-06T06:25:31.930Z,-3.27
2019-02-06T06:26:31.782Z,-3.37
2019-02-06T06:27:32.762Z,-3.2
2019-02-06T06:28:33.042Z,-3.14
2019-02-06T06:29:33.913Z,-3.19
2019-02-06T06:30:34.344Z,-3.22
2019-02-06T06:31:35.325Z,-3.19
2019-02-06T06:32:36.582Z,-3.25
2019-02-06T06:33:37.097Z,-3.2
2019-02-06T06:34:37.805Z,-3.2
2019-02-06T06:35:39.005Z,-3.3
2019-02-06T06:36:38.968Z,-3.3
2019-02-06T06:37:43.212Z,-3.22
2019-02-06T06:38:04.052Z,-3.25
2019-02-06T06:39:04.088Z,-3.22
2019-02-06T06:40:04.214Z,-3.14
2019-02-06T06:41:05.756Z,-3.23
2019-02-06T06:42:05.519Z,-3.22
2019-02-06T06:43:05.965Z,-3.22
2019-02-06T06:44:06.228Z,-3.23
2019-02-06T06:45:06.656Z,-3.33
2019-02-06T06:46:07.637Z,-3.32
2019-02-06T06:47:09.939Z,-3.3
2019-02-06T06:48:09.756Z,-3.38
2019-02-06T06:49:09.975Z,-3.44
2019-02-06T06:50:10.503Z,-3.43
2019-02-06T06:51:11.750Z,-3.5
2019-02-06T06:52:12.189Z,-3.46
2019-02-06T06:53:13.170Z,-3.51
2019-02-06T06:54:13.707Z,-3.51
2019-02-06T06:55:15.116Z,-3.44
2019-02-06T06:56:15.185Z,-3.48
2019-02-06T06:57:15.612Z,-3.53
2019-02-06T06:58:16.031Z,-3.41
2019-02-06T06:59:16.888Z,-3.26
2019-02-06T07:00:17.750Z,-3.22
2019-02-06T07:01:18.162Z,-3.22
2019-02-06T07:02:19.418Z,-3.15
2019-02-06T07:03:20.737Z,-3.2
2019-02-06T07:04:20.640Z,-3.14
2019-02-06T07:05:21.051Z,-3.19
2019-02-06T07:06:21.548Z,-3.12
2019-02-06T07:07:22.804Z,-2.94
2019-02-06T07:08:22.571Z,-2.89
2019-02-06T07:09:24.026Z,-2.8
2019-02-06T07:10:25.019Z,-2.86
2019-02-06T07:11:25.719Z,-2.91
2019-02-06T07:12:28.252Z,-2.83
2019-02-06T07:13:28.273Z,-2.78
2019-02-06T07:14:28.696Z,-2.75
2019-02-06T07:15:29.526Z,-2.62
2019-02-06T07:16:30.525Z,-2.62
2019-02-06T07:17:31.950Z,-2.65
2019-02-06T07:18:32.933Z,-2.58
2019-02-06T07:19:33.033Z,-2.75
2019-02-06T07:20:35.175Z,-2.78
2019-02-06T07:21:35.473Z,-2.76
2019-02-06T07:22:36.126Z,-2.62
2019-02-06T07:23:37.058Z,-2.52
2019-02-06T07:24:37.611Z,-2.37
2019-02-06T07:25:38.310Z,-2.33
2019-02-06T07:26:39.745Z,-2.15
2019-02-06T07:27:40.189Z,-2.14
2019-02-06T07:28:40.903Z,-2.23
2019-02-06T07:29:43.409Z,-2.28
2019-02-06T07:30:42.945Z,-2.22
2019-02-06T07:31:43.366Z,-2.04
2019-02-06T07:32:43.784Z,-1.79
2019-02-06T07:33:45.197Z,-1.74
2019-02-06T07:34:45.899Z,-1.58
2019-02-06T07:35:46.318Z,-1.57
2019-02-06T07:36:47.321Z,-1.48
2019-02-06T07:37:48.870Z,-1.22
2019-02-06T07:38:48.874Z,-0.75
2019-02-06T07:39:49.709Z,-0.48
2019-02-06T07:40:50.682Z,-0.24
2019-02-06T07:41:51.664Z,0
2019-02-06T07:42:52.649Z,-0.02
2019-02-06T07:43:53.082Z,-0.13
2019-02-06T07:44:55.528Z,0.08
2019-02-06T07:45:57.860Z,0.27
2019-02-06T07:46:59.304Z,0.61
2019-02-06T07:47:13.915Z,0.66
2019-02-06T07:47:25.709Z,0.81
2019-02-06T07:48:25.701Z,1.2
2019-02-06T07:49:25.867Z,1.81
2019-02-06T07:50:28.342Z,2.14
2019-02-06T07:51:28.330Z,2.62
2019-02-06T07:52:29.041Z,2.87
2019-02-06T07:53:29.571Z,3.11
2019-02-06T07:54:29.417Z,3.03
2019-02-06T07:55:29.853Z,3.29
2019-02-06T07:56:30.567Z,3.08
2019-02-06T07:57:31.272Z,3.41
2019-02-06T07:58:32.798Z,3.34
2019-02-06T07:59:32.488Z,3.68
2019-02-06T08:00:34.053Z,4.13
2019-02-06T08:01:34.594Z,4.6
2019-02-06T08:02:35.285Z,4.98
2019-02-06T08:03:37.020Z,5.15
2019-02-06T08:04:38.011Z,5.4
2019-02-06T08:05:40.274Z,5.55
2019-02-06T08:06:40.541Z,5.55
2019-02-06T08:07:41.812Z,5.59
2019-02-06T08:08:42.923Z,5.72
2019-02-06T08:09:43.925Z,6.09
2019-02-06T08:10:44.476Z,6.46
2019-02-06T08:11:45.178Z,6.9
2019-02-06T08:12:46.634Z,7.15
2019-02-06T08:13:48.023Z,7.13
2019-02-06T08:14:48.072Z,6.54
2019-02-06T08:15:50.031Z,6.07
2019-02-06T08:16:49.867Z,5.54
2019-02-06T08:17:51.402Z,5.02
2019-02-06T08:18:52.143Z,4.75
2019-02-06T08:19:52.842Z,4.66
2019-02-06T08:20:53.011Z,4.27
2019-02-06T08:21:54.582Z,4.02
2019-02-06T08:22:55.013Z,3.59
2019-02-06T08:23:56.143Z,3.45
2019-02-06T08:24:56.580Z,3.12
2019-02-06T08:25:56.993Z,3.01
2019-02-06T08:26:57.690Z,2.87
2019-02-06T08:27:58.396Z,2.75
2019-02-06T08:28:58.996Z,2.75
2019-02-06T08:29:59.544Z,2.75
2019-02-06T08:31:00.620Z,2.87
2019-02-06T08:32:01.156Z,3.13
2019-02-06T08:33:02.772Z,3.45
2019-02-06T08:34:02.395Z,3.29
2019-02-06T08:35:03.677Z,3.08
2019-02-06T08:36:03.654Z,2.79
2019-02-06T08:37:05.080Z,2.61
2019-02-06T08:38:05.720Z,2.41
2019-02-06T08:38:51.922Z,2.43
2019-02-06T08:39:02.125Z,2.4
2019-02-06T08:40:02.554Z,2.59
2019-02-06T08:41:03.586Z,3.12
2019-02-06T08:42:07.326Z,3.94
2019-02-06T08:43:05.806Z,4.58
2019-02-06T08:44:06.545Z,5.02
2019-02-06T08:45:06.589Z,5.43
2019-02-06T08:46:07.516Z,5.61
2019-02-06T08:47:08.347Z,5.73
2019-02-06T08:48:08.825Z,6.05
2019-02-06T08:49:12.557Z,6.41
2019-02-06T08:50:12.711Z,6.74
2019-02-06T08:51:13.861Z,7
2019-02-06T08:52:14.279Z,7.14
2019-02-06T08:53:15.265Z,6.87
2019-02-06T08:54:15.811Z,6.39
2019-02-06T08:55:17.530Z,6.41
2019-02-06T08:56:17.956Z,6.32
2019-02-06T08:57:18.744Z,6.35
2019-02-06T08:58:21.029Z,6.47
2019-02-06T08:59:21.279Z,6.86
2019-02-06T09:00:22.284Z,6.83
2019-02-06T09:01:23.519Z,6.65
2019-02-06T09:02:24.086Z,6.44
2019-02-06T09:03:24.503Z,5.79
2019-02-06T09:04:25.768Z,5.4
2019-02-06T09:05:26.479Z,4.87
2019-02-06T09:06:28.400Z,4.5
2019-02-06T09:07:28.801Z,3.71
2019-02-06T09:08:29.504Z,3.61
2019-02-06T09:09:29.929Z,3.58
2019-02-06T09:10:30.806Z,3.5
2019-02-06T09:11:31.573Z,3.31
2019-02-06T09:12:32.994Z,3.12
2019-02-06T09:13:33.695Z,3
2019-02-06T09:14:34.131Z,3.11
2019-02-06T09:15:36.949Z,3.22
2019-02-06T09:16:36.033Z,3.27
2019-02-06T09:17:37.206Z,3.46
2019-02-06T09:18:38.356Z,3.7
2019-02-06T09:19:38.857Z,3.7
2019-02-06T09:20:39.846Z,3.71
2019-02-06T09:21:40.280Z,3.81
2019-02-06T09:22:41.300Z,3.96
2019-02-06T09:23:43.494Z,4.1
2019-02-06T09:24:43.295Z,4.14
2019-02-06T09:25:44.274Z,4.22
2019-02-06T09:26:45.319Z,4.27
2019-02-06T09:27:45.747Z,4.45
2019-02-06T09:28:46.899Z,4.58
2019-02-06T09:29:47.343Z,4.58
2019-02-06T09:30:48.340Z,4.66
2019-02-06T09:31:53.085Z,4.56
2019-02-06T09:32:03.342Z,4.58
2019-02-06T09:32:13.776Z,4.63
2019-02-06T09:33:13.583Z,4.48
2019-02-06T09:34:14.560Z,4.46
2019-02-06T09:35:16.474Z,4.56
2019-02-06T09:36:16.343Z,4.64
2019-02-06T09:37:16.817Z,4.75
2019-02-06T09:38:17.531Z,4.87
2019-02-06T09:39:17.966Z,4.98
2019-02-06T09:40:18.673Z,5.34
2019-02-06T09:41:19.825Z,5.41
2019-02-06T09:42:21.275Z,5.51
2019-02-06T09:43:22.472Z,5.61
2019-02-06T09:44:22.896Z,5.58
2019-02-06T09:45:24.185Z,5.61
2019-02-06T09:46:24.371Z,5.7
2019-02-06T09:47:25.130Z,5.79
2019-02-06T09:48:25.286Z,5.99
2019-02-06T09:49:26.728Z,6.16
2019-02-06T09:50:28.008Z,6.16
2019-02-06T09:51:28.738Z,6.28
2019-02-06T09:52:31.654Z,6.31
2019-02-06T09:53:31.550Z,6.32
2019-02-06T09:54:31.825Z,6.49
2019-02-06T09:55:32.929Z,7.03
2019-02-06T09:56:33.403Z,7.55
2019-02-06T09:57:36.807Z,8.18
2019-02-06T09:58:38.099Z,8.81
2019-02-06T09:59:38.122Z,9.22
2019-02-06T10:00:38.862Z,9.48
2019-02-06T10:01:45.110Z,9.87
2019-02-06T10:01:55.776Z,9.85
2019-02-06T10:02:54.968Z,9.63
2019-02-06T10:03:54.155Z,9.58
2019-02-06T10:04:55.527Z,9.72
2019-02-06T10:05:55.783Z,9.88
2019-02-06T10:06:58.172Z,9.87
2019-02-06T10:07:58.778Z,10.06
2019-02-06T10:08:58.233Z,10.28
2019-02-06T10:10:02.923Z,10.15
2019-02-06T10:10:14.948Z,10.2
2019-02-06T10:10:24.427Z,10.13
2019-02-06T10:11:24.481Z,9.87
2019-02-06T10:12:25.490Z,9.84
2019-02-06T10:13:25.236Z,9.76
2019-02-06T10:14:28.026Z,9.66
2019-02-06T10:15:27.791Z,9.66
2019-02-06T10:16:31.463Z,9.52
2019-02-06T10:16:41.374Z,9.48
2019-02-06T10:17:41.292Z,9.29
2019-02-06T10:18:41.832Z,9.3
2019-02-06T10:19:43.847Z,9.34
2019-02-06T10:20:44.573Z,9.34
2019-02-06T10:21:44.833Z,9.39
2019-02-06T10:22:45.548Z,9.54
2019-02-06T10:23:46.534Z,9.66
2019-02-06T10:24:48.198Z,9.7
2019-02-06T10:25:47.966Z,9.9
2019-02-06T10:26:48.415Z,9.92
2019-02-06T10:27:49.385Z,10.02
2019-02-06T10:28:49.834Z,10.03
2019-02-06T10:29:50.279Z,10.21
2019-02-06T10:30:51.006Z,10.31
2019-02-06T10:31:54.434Z,10.42
2019-02-06T10:32:53.344Z,10.67
2019-02-06T10:33:54.049Z,10.65
2019-02-06T10:34:54.339Z,10.36
2019-02-06T10:35:55.049Z,9.99
2019-02-06T10:36:55.482Z,9.45
2019-02-06T10:37:55.984Z,8.93
2019-02-06T10:38:57.138Z,8.74
2019-02-06T10:40:00.020Z,8.61
2019-02-06T10:41:01.013Z,8.41
2019-02-06T10:42:02.746Z,8.56
2019-02-06T10:43:03.469Z,8.63
2019-02-06T10:44:03.890Z,9.13
2019-02-06T10:45:04.644Z,8.72
2019-02-06T10:46:05.810Z,8.6
2019-02-06T10:47:06.536Z,8.6
2019-02-06T10:48:07.134Z,8.5
2019-02-06T10:49:07.581Z,8.49
2019-02-06T10:50:08.404Z,8.99
2019-02-06T10:51:09.440Z,9.21
2019-02-06T10:52:09.677Z,9.29
2019-02-06T10:53:10.426Z,9.44
2019-02-06T10:54:10.899Z,9.77
2019-02-06T10:55:11.789Z,9.94
2019-02-06T10:56:12.948Z,10.28
2019-02-06T10:57:13.857Z,10.46
2019-02-06T10:58:14.740Z,10.58
2019-02-06T10:59:17.021Z,10.61
2019-02-06T11:00:16.939Z,10.68
2019-02-06T11:01:16.691Z,10.67
2019-02-06T11:02:21.088Z,10.62
2019-02-06T11:03:19.765Z,10.49
2019-02-06T11:04:21.086Z,10.31
2019-02-06T11:05:22.122Z,10.42
2019-02-06T11:06:23.118Z,10.43
2019-02-06T11:07:23.858Z,10.55
2019-02-06T11:08:23.957Z,10.38
2019-02-06T11:09:25.235Z,10.12
2019-02-06T11:10:25.723Z,9.73
2019-02-06T11:11:26.440Z,9.76
2019-02-06T11:12:27.457Z,9.87
2019-02-06T11:13:27.997Z,9.82
2019-02-06T11:14:29.040Z,10.07
2019-02-06T11:15:29.469Z,10.21
2019-02-06T11:16:30.238Z,10.23
2019-02-06T11:17:31.068Z,10.39
2019-02-06T11:18:33.037Z,9.8
2019-02-06T11:19:33.195Z,9.54
2019-02-06T11:20:33.634Z,9.19
2019-02-06T11:21:34.418Z,9.37
2019-02-06T11:22:34.575Z,9.64
2019-02-06T11:23:35.569Z,9.67
2019-02-06T11:24:38.098Z,9.48
2019-02-06T11:25:38.743Z,9.29
2019-02-06T11:26:43.065Z,9.51
2019-02-06T11:26:55.505Z,9.48
2019-02-06T11:27:07.645Z,9.36
2019-02-06T11:27:19.252Z,9.36
2019-02-06T11:28:16.435Z,9.47
2019-02-06T11:29:16.727Z,9.72
2019-02-06T11:30:18.698Z,10.07
2019-02-06T11:31:18.476Z,10.23
2019-02-06T11:32:23.069Z,10.53
2019-02-06T11:32:33.692Z,10.61
2019-02-06T11:32:44.919Z,10.53
2019-02-06T11:33:43.797Z,10.33
2019-02-06T11:34:45.512Z,10.21
2019-02-06T11:35:45.972Z,9.92
2019-02-06T11:36:46.985Z,9.77
2019-02-06T11:37:50.661Z,9.76
2019-02-06T11:38:53.905Z,9.82
2019-02-06T11:39:05.222Z,9.67
2019-02-06T11:40:05.407Z,9.73
2019-02-06T11:41:04.434Z,9.7
2019-02-06T11:42:04.877Z,9.77
2019-02-06T11:43:05.751Z,9.51
2019-02-06T11:44:07.368Z,9.45
2019-02-06T11:45:07.171Z,9.26
2019-02-06T11:46:13.752Z,9.27
2019-02-06T11:46:23.218Z,9.29
2019-02-06T11:46:35.652Z,9.27
2019-02-06T11:46:47.335Z,9.33
2019-02-06T11:46:59.046Z,9.33
2019-02-06T11:47:57.971Z,9.33
2019-02-06T11:48:58.432Z,9.47
2019-02-06T11:49:58.887Z,9.58
2019-02-06T11:50:59.741Z,9.62
2019-02-06T11:52:00.323Z,9.67
2019-02-06T11:53:00.505Z,9.67
2019-02-06T11:54:01.003Z,9.7
2019-02-06T11:55:01.800Z,9.58
2019-02-06T11:56:02.359Z,9.49
2019-02-06T11:57:03.066Z,9.45
2019-02-06T11:58:04.072Z,9.08
2019-02-06T11:59:06.243Z,8.63
2019-02-06T12:00:06.361Z,8.27
2019-02-06T12:01:07.073Z,8.14
2019-02-06T12:02:08.142Z,8.11
2019-02-06T12:03:09.729Z,7.85
2019-02-06T12:04:08.957Z,7.91
2019-02-06T12:05:09.594Z,7.85
2019-02-06T12:06:10.602Z,7.59
2019-02-06T12:07:12.721Z,7.56
2019-02-06T12:08:14.122Z,7.69
2019-02-06T12:09:14.872Z,7.64
2019-02-06T12:10:16.718Z,7.77
2019-02-06T12:11:17.637Z,8.02
2019-02-06T12:12:18.039Z,8.09
2019-02-06T12:13:18.308Z,8.09
2019-02-06T12:14:18.933Z,8.23
2019-02-06T12:15:19.800Z,8.14
2019-02-06T12:16:23.525Z,8.27
2019-02-06T12:17:25.214Z,8.39
2019-02-06T12:18:26.598Z,8.63
2019-02-06T12:19:26.266Z,8.63
2019-02-06T12:20:26.715Z,8.87
2019-02-06T12:21:27.716Z,9.05
2019-02-06T12:22:28.431Z,9.03
2019-02-06T12:23:33.476Z,8.77
2019-02-06T12:24:34.526Z,8.36
2019-02-06T12:25:38.642Z,8.13
2019-02-06T12:26:39.446Z,7.91
2019-02-06T12:26:52.090Z,7.88
2019-02-06T12:27:04.331Z,7.77
2019-02-06T12:27:16.716Z,7.74
2019-02-06T12:27:28.993Z,7.61
2019-02-06T12:27:41.439Z,7.62
2019-02-06T12:27:53.611Z,7.59
2019-02-06T12:28:07.500Z,7.56
2019-02-06T12:28:17.641Z,7.56
2019-02-06T12:28:29.887Z,7.46
2019-02-06T12:28:42.951Z,7.53
2019-02-06T12:29:40.433Z,7.53
2019-02-06T12:30:41.163Z,7.74
2019-02-06T12:31:41.702Z,8.03
2019-02-06T12:32:55.255Z,8.28
2019-02-06T12:33:54.592Z,8.39
2019-02-06T12:34:55.765Z,8.27
2019-02-06T12:35:55.761Z,8.36
2019-02-06T12:36:55.972Z,8.41
2019-02-06T12:37:57.130Z,8.28
2019-02-06T12:38:57.391Z,8.05
2019-02-06T12:39:58.111Z,7.87
2019-02-06T12:40:58.556Z,7.74
2019-02-06T12:42:00.233Z,7.7
2019-02-06T12:43:00.407Z,7.67
2019-02-06T12:44:01.541Z,7.56
2019-02-06T12:45:01.843Z,7.56
2019-02-06T12:46:03.286Z,7.56
2019-02-06T12:47:04.731Z,7.33
2019-02-06T12:48:04.911Z,7.23
2019-02-06T12:49:06.214Z,6.97